Millenium Maverick — WCD2866 — position and weather

sailwx.info

Track history (hours):
 
Tides and Currents Weather Stations Pressure Air Temp Water Temp Dewpoint Dewpoint Depression Visibility Wind Speed Wind Dir Waves Ship Positions

Millenium Maverick

Last reported at 2017-Oct-19 02:00 UTC. Time now 2017-Oct-19 02:15 UTC.
Position N 33°44' W 118°16'.

Length 29 m; draft 5.5 m.

Type: Towing. MMSI: 366998840.

Date/timePositionNaut miles runAvg speedWind from/ knotsBaromVisibWave heightAir tempDewpointWater temp
2017-Oct-19 02:00N 33°44' W 118°16'0 0.0
2017-Oct-19 01:24N 33°44' W 118°16'0 0.0
2017-Oct-19 01:00N 33°44' W 118°16'1 1.1
2017-Oct-19 00:30N 33°43' W 118°16'3 5.1
2017-Oct-19 00:00N 33°46' W 118°16'2 4.3
2017-Oct-18 23:30N 33°44' W 118°16'1 2.5
2017-Oct-18 23:00N 33°43' W 118°15'3 5.6
2017-Oct-18 22:30N 33°45' W 118°13'1 2.8
2017-Oct-18 22:00N 33°46' W 118°14'2 4.6
2017-Oct-18 21:30N 33°44' W 118°14'2 3.4
2017-Oct-18 21:00N 33°44' W 118°16'0 0.0
2017-Oct-18 20:25N 33°44' W 118°16'0 0.0
2017-Oct-18 19:48N 33°44' W 118°16'0 0.0
2017-Oct-18 19:28N 33°44' W 118°16'0 0.0
2017-Oct-18 18:53N 33°44' W 118°16'0 0.0
2017-Oct-18 18:24N 33°44' W 118°16'0 0.0
2017-Oct-18 17:57N 33°44' W 118°16'0 0.0
2017-Oct-18 17:28N 33°44' W 118°16'0 0.0
2017-Oct-18 17:00N 33°44' W 118°16'0 0.0
2017-Oct-18 16:13N 33°44' W 118°16'0 0.0
2017-Oct-18 15:56N 33°44' W 118°16'0 0.0
2017-Oct-18 15:24N 33°44' W 118°16'1 2.4
2017-Oct-18 14:59N 33°45' W 118°17'1 0.9
2017-Oct-18 13:52N 33°44' W 118°16'0 0.2
2017-Oct-18 13:28N 33°44' W 118°16'1 2.3
2017-Oct-18 13:00N 33°45' W 118°17'1 2.4
2017-Oct-18 12:26N 33°46' W 118°16'1 2.2
2017-Oct-18 12:00N 33°45' W 118°16'1 1.3
2017-Oct-18 11:30N 33°45' W 118°16'2 4.1
2017-Oct-18 11:00N 33°43' W 118°15'1 2.0
2017-Oct-18 10:25N 33°44' W 118°16'0 0.0
2017-Oct-18 10:00N 33°44' W 118°16'0 0.0
2017-Oct-18 09:30N 33°44' W 118°16'0 0.0
2017-Oct-18 09:00N 33°44' W 118°16'0 0.0
2017-Oct-18 08:30N 33°44' W 118°16'0 0.0
2017-Oct-18 08:00N 33°44' W 118°16'0 0.0
2017-Oct-18 07:30N 33°44' W 118°16'0 0.0
2017-Oct-18 07:00N 33°44' W 118°16'0 0.0
2017-Oct-18 06:30N 33°44' W 118°16'0 0.0
2017-Oct-18 06:00N 33°44' W 118°16'0 0.0
2017-Oct-18 05:30N 33°44' W 118°16'0 0.0
2017-Oct-18 05:00N 33°44' W 118°16'0 0.0
2017-Oct-18 04:30N 33°44' W 118°16'0 0.0
2017-Oct-18 04:00N 33°44' W 118°16'0 0.0
2017-Oct-18 03:30N 33°44' W 118°16'0 0.0
2017-Oct-18 01:32N 33°44' W 118°16'0 0.0
2017-Oct-18 01:21N 33°44' W 118°16'0 0.0
2017-Oct-18 00:52N 33°44' W 118°16'0 0.0
2017-Oct-18 00:27N 33°44' W 118°16'0 0.0
2017-Oct-17 23:36N 33°44' W 118°16'0 0.0
2017-Oct-17 23:17N 33°44' W 118°16'0 0.0
2017-Oct-17 22:50N 33°44' W 118°16'0 0.0
2017-Oct-17 21:36N 33°44' W 118°16'0 0.0
2017-Oct-17 21:24N 33°44' W 118°16'0 0.0
2017-Oct-17 20:59N 33°44' W 118°16'0 0.0
2017-Oct-17 20:29N 33°44' W 118°16'0 0.0
2017-Oct-17 19:37N 33°44' W 118°16'0 0.0
2017-Oct-17 19:28N 33°44' W 118°16'0 0.0
2017-Oct-17 19:00N 33°44' W 118°16'0 0.0
2017-Oct-17 18:31N 33°44' W 118°16'0 0.0
2017-Oct-17 18:00N 33°44' W 118°16'0 0.0
2017-Oct-17 17:31N 33°44' W 118°16'0 0.0
2017-Oct-17 16:50N 33°44' W 118°16'0 0.0
2017-Oct-17 16:23N 33°44' W 118°16'0 0.7
2017-Oct-17 15:59N 33°44' W 118°15'0 0.1
2017-Oct-17 15:30N 33°44' W 118°15'1 2.2
2017-Oct-17 15:00N 33°44' W 118°17'3 2.1
2017-Oct-17 13:25N 33°45' W 118°13'1 2.0
2017-Oct-17 12:59N 33°45' W 118°13'2 3.1
2017-Oct-17 12:26N 33°43' W 118°11'1 2.5
2017-Oct-17 11:53N 33°43' W 118°13'2 1.0
2017-Oct-17 09:35N 33°44' W 118°16'0 0.0
2017-Oct-17 08:37N 33°44' W 118°16'0 0.0
2017-Oct-17 08:17N 33°44' W 118°16'0 0.0
2017-Oct-17 06:42N 33°44' W 118°16'0 0.0
2017-Oct-17 06:29N 33°44' W 118°16'0 0.0
2017-Oct-17 05:57N 33°44' W 118°16'0 0.0
2017-Oct-17 05:25N 33°44' W 118°16'0 0.0
2017-Oct-17 04:57N 33°44' W 118°16'0 0.0
2017-Oct-17 04:24N 33°44' W 118°16'0 0.0
2017-Oct-17 03:58N 33°44' W 118°16'0 0.0
2017-Oct-17 03:14N 33°44' W 118°16'0 0.0
2017-Oct-17 03:00N 33°44' W 118°16'1 1.7
2017-Oct-17 02:22N 33°45' W 118°16'1 1.5
2017-Oct-17 02:00N 33°45' W 118°17'0 0.7
2017-Oct-17 01:30N 33°45' W 118°16'1 2.1
2017-Oct-17 00:55N 33°44' W 118°16'0 0.0
2017-Oct-17 00:26N 33°44' W 118°16'0 0.0
2017-Oct-17 00:00N 33°44' W 118°16'0 0.0
2017-Oct-16 23:27N 33°44' W 118°16'0 0.0
2017-Oct-16 23:00N 33°44' W 118°16'0 0.0
2017-Oct-16 22:28N 33°44' W 118°16'0 0.0
2017-Oct-16 22:01N 33°44' W 118°16'0 0.0
2017-Oct-16 21:25N 33°44' W 118°16'0 0.0
2017-Oct-16 21:00N 33°44' W 118°16'0 0.0
2017-Oct-16 20:30N 33°44' W 118°16'0 0.0
2017-Oct-16 19:59N 33°44' W 118°16'0 0.0
2017-Oct-16 19:30N 33°44' W 118°16'0 0.0
2017-Oct-16 19:00N 33°44' W 118°16'0 0.0
2017-Oct-16 18:30N 33°44' W 118°16'0 0.0
2017-Oct-16 18:00N 33°44' W 118°16'0 0.0
2017-Oct-16 17:30N 33°44' W 118°16'0 0.0
2017-Oct-16 16:53N 33°44' W 118°16'0 0.0
2017-Oct-16 16:29N 33°44' W 118°16'0 0.0
2017-Oct-16 16:00N 33°44' W 118°16'2 1.4
2017-Oct-16 14:34N 33°46' W 118°16'0 1.6
2017-Oct-16 14:20N 33°45' W 118°16'2 1.8
2017-Oct-16 13:22N 33°44' W 118°16'0 0.0
2017-Oct-16 10:18N 33°44' W 118°16'0 0.0
2017-Oct-16 09:43N 33°44' W 118°16'0 0.0
2017-Oct-16 09:19N 33°44' W 118°16'0 0.0
2017-Oct-16 08:53N 33°44' W 118°16'0 0.0
2017-Oct-16 08:17N 33°44' W 118°16'0 0.0
2017-Oct-16 07:57N 33°44' W 118°16'0 0.0
2017-Oct-16 07:23N 33°44' W 118°16'0 0.0
2017-Oct-16 06:48N 33°44' W 118°16'0 0.0
2017-Oct-16 06:25N 33°44' W 118°16'0 0.0
2017-Oct-16 05:56N 33°44' W 118°16'0 0.0
2017-Oct-16 05:28N 33°44' W 118°16'0 0.0
2017-Oct-16 04:57N 33°44' W 118°16'0 0.0
2017-Oct-16 04:28N 33°44' W 118°16'0 0.0
2017-Oct-16 04:00N 33°44' W 118°16'0 0.0
2017-Oct-16 03:26N 33°44' W 118°16'0 0.0
2017-Oct-16 02:59N 33°44' W 118°16'0 0.0
2017-Oct-16 02:22N 33°44' W 118°16'0 0.0
2017-Oct-16 01:59N 33°44' W 118°16'0 0.0
2017-Oct-16 01:18N 33°44' W 118°16'0 0.0
2017-Oct-16 00:58N 33°44' W 118°16'0 0.0
2017-Oct-16 00:30N 33°44' W 118°16'0 0.0
2017-Oct-16 00:00N 33°44' W 118°16'0 0.1
2017-Oct-15 23:19N 33°44' W 118°16'2 6.6
2017-Oct-15 23:00N 33°44' W 118°13'1 2.3
2017-Oct-15 22:30N 33°44' W 118°12'1 1.9
2017-Oct-15 21:56N 33°44' W 118°11'2 4.5
2017-Oct-15 21:30N 33°43' W 118°13'2 3.7
2017-Oct-15 20:58N 33°44' W 118°16'0 0.0
2017-Oct-15 20:26N 33°44' W 118°16'0 0.0
2017-Oct-15 20:00N 33°44' W 118°16'0 0.0
2017-Oct-15 19:26N 33°44' W 118°16'0 0.0
2017-Oct-15 19:00N 33°44' W 118°16'0 0.0
2017-Oct-15 18:30N 33°44' W 118°16'0 0.0
2017-Oct-15 18:00N 33°44' W 118°16'0 0.0
2017-Oct-15 17:30N 33°44' W 118°16'0 0.0
2017-Oct-15 17:00N 33°44' W 118°16'1 2.2
2017-Oct-15 16:27N 33°43' W 118°15'2 5.2
2017-Oct-15 15:59N 33°45' W 118°13'1 1.9
2017-Oct-15 15:30N 33°46' W 118°13'0 0.0
2017-Oct-15 15:00N 33°46' W 118°13'2 2.4
2017-Oct-15 14:00N 33°44' W 118°11'4 7.1
2017-Oct-15 13:25N 33°43' W 118°16'0 0.5
2017-Oct-15 13:00N 33°43' W 118°16'0 0.4
2017-Oct-15 12:30N 33°43' W 118°16'1 1.6
2017-Oct-15 12:01N 33°44' W 118°16'0 0.2
2017-Oct-15 11:30N 33°44' W 118°16'0 0.0
2017-Oct-15 11:00N 33°44' W 118°16'0 0.0
2017-Oct-15 10:30N 33°44' W 118°16'0 0.0
2017-Oct-15 10:00N 33°44' W 118°16'0 0.0
2017-Oct-15 09:30N 33°44' W 118°16'0 0.0
2017-Oct-15 09:00N 33°44' W 118°16'0 0.0
2017-Oct-15 08:30N 33°44' W 118°16'0 0.0
2017-Oct-15 08:00N 33°44' W 118°16'0 0.0
2017-Oct-15 07:30N 33°44' W 118°16'0 0.0
2017-Oct-15 07:00N 33°44' W 118°16'0 0.0
2017-Oct-15 06:30N 33°44' W 118°16'0 0.0
2017-Oct-15 06:00N 33°44' W 118°16'0 0.0
2017-Oct-15 05:30N 33°44' W 118°16'0 0.0
2017-Oct-15 05:00N 33°44' W 118°16'0 0.0
2017-Oct-15 04:30N 33°44' W 118°16'0 0.0
2017-Oct-15 04:00N 33°44' W 118°16'0 0.0
2017-Oct-15 03:30N 33°44' W 118°16'0 0.0
2017-Oct-15 03:00N 33°44' W 118°16'0 0.0
2017-Oct-15 02:30N 33°44' W 118°16'2 4.7
2017-Oct-15 02:01N 33°45' W 118°13'1 1.5
2017-Oct-15 01:30N 33°45' W 118°14'0 0.1
2017-Oct-15 01:00N 33°45' W 118°14'1 1.2
2017-Oct-15 00:30N 33°45' W 118°13'3 5.3
2017-Oct-15 00:00N 33°43' W 118°15'1 1.8
2017-Oct-14 23:30N 33°44' W 118°16'0 0.0
2017-Oct-14 23:00N 33°44' W 118°16'0 0.0
2017-Oct-14 22:30N 33°44' W 118°16'0 0.0
2017-Oct-14 22:00N 33°44' W 118°16'0 0.0
2017-Oct-14 21:30N 33°44' W 118°16'0 0.0
2017-Oct-14 21:00N 33°44' W 118°16'0 0.0
2017-Oct-14 20:30N 33°44' W 118°16'0 0.0
2017-Oct-14 20:00N 33°44' W 118°16'0 0.0
2017-Oct-14 19:30N 33°44' W 118°16'0 0.0
2017-Oct-14 19:00N 33°44' W 118°16'0 0.0
2017-Oct-14 18:30N 33°44' W 118°16'0 0.0
2017-Oct-14 17:59N 33°44' W 118°16'0 0.0
2017-Oct-14 17:30N 33°44' W 118°16'0 0.0
2017-Oct-14 16:59N 33°44' W 118°16'0 0.0
2017-Oct-14 16:30N 33°44' W 118°16'0 0.0
2017-Oct-14 16:00N 33°44' W 118°16'0 0.5
2017-Oct-14 15:30N 33°44' W 118°16'4 7.9
2017-Oct-14 14:57N 33°39' W 118°14'4 8.1
2017-Oct-14 14:30N 33°43' W 118°15'2 4.5
2017-Oct-14 14:00N 33°45' W 118°17'2 3.5
2017-Oct-14 13:30N 33°43' W 118°16'1 1.3
2017-Oct-14 13:00N 33°44' W 118°16'0 0.3
2017-Oct-14 12:30N 33°44' W 118°16'2 3.2
2017-Oct-14 12:00N 33°45' W 118°16'1 2.1
2017-Oct-14 11:30N 33°44' W 118°17'2 3.8
2017-Oct-14 10:59N 33°43' W 118°15'1 2.3
2017-Oct-14 10:25N 33°44' W 118°16'0 0.0
2017-Oct-14 09:45N 33°44' W 118°16'0 0.0
2017-Oct-14 09:30N 33°44' W 118°16'0 0.0
2017-Oct-14 08:59N 33°44' W 118°16'0 0.0
2017-Oct-14 08:30N 33°44' W 118°16'0 0.0
2017-Oct-14 08:00N 33°44' W 118°16'0 0.0
2017-Oct-14 07:29N 33°44' W 118°16'0 0.0
2017-Oct-14 06:57N 33°44' W 118°16'0 0.0
2017-Oct-14 06:27N 33°44' W 118°16'0 0.0
2017-Oct-14 06:00N 33°44' W 118°16'0 0.0
2017-Oct-14 05:30N 33°44' W 118°16'0 0.0
2017-Oct-14 05:00N 33°44' W 118°16'0 0.0
2017-Oct-14 04:30N 33°44' W 118°16'0 0.0
2017-Oct-14 04:00N 33°44' W 118°16'0 0.0
2017-Oct-14 03:30N 33°44' W 118°16'0 0.0
2017-Oct-14 03:00N 33°44' W 118°16'0 0.0
2017-Oct-14 02:30N 33°44' W 118°16'0 0.0
2017-Oct-14 02:00N 33°44' W 118°16'0 0.6
2017-Oct-14 01:30N 33°44' W 118°15'0 0.6
2017-Oct-14 01:01N 33°44' W 118°16'0 0.0
2017-Oct-14 00:30N 33°44' W 118°16'0 0.0
2017-Oct-14 00:00N 33°44' W 118°16'0 0.0
2017-Oct-13 23:30N 33°44' W 118°16'0 0.0
2017-Oct-13 23:00N 33°44' W 118°16'0 0.0
2017-Oct-13 22:06N 33°44' W 118°16'0 0.0
2017-Oct-13 21:37N 33°44' W 118°16'0 0.0
2017-Oct-13 21:30N 33°44' W 118°16'0 0.0
2017-Oct-13 20:55N 33°44' W 118°16'0 0.0
2017-Oct-13 20:21N 33°44' W 118°16'0 0.0
2017-Oct-13 19:55N 33°44' W 118°16'0 0.0
2017-Oct-13 19:13N 33°44' W 118°16'0 0.0
2017-Oct-13 19:00N 33°44' W 118°16'0 0.0
2017-Oct-13 18:30N 33°44' W 118°16'0 0.0
2017-Oct-13 17:58N 33°44' W 118°16'0 0.0
2017-Oct-13 17:28N 33°44' W 118°16'0 0.0
2017-Oct-13 17:00N 33°44' W 118°16'0 0.0
2017-Oct-13 16:23N 33°44' W 118°16'0 0.0
2017-Oct-13 15:31N 33°44' W 118°16'0 0.4
2017-Oct-13 15:30N 33°44' W 118°16'0 0.0
2017-Oct-13 14:54N 33°44' W 118°16'0 0.0
2017-Oct-13 14:28N 33°44' W 118°16'0 0.0
2017-Oct-13 13:58N 33°44' W 118°16'0 0.0
2017-Oct-13 13:30N 33°44' W 118°16'0 0.0
2017-Oct-13 13:00N 33°44' W 118°16'0 0.0
2017-Oct-13 12:02N 33°44' W 118°16'0 0.0
2017-Oct-13 11:43N 33°44' W 118°16'0 0.0
2017-Oct-13 11:30N 33°44' W 118°16'0 0.0
2017-Oct-13 11:00N 33°44' W 118°16'0 0.0
2017-Oct-13 10:30N 33°44' W 118°16'0 0.0
2017-Oct-13 10:00N 33°44' W 118°16'0 0.0
2017-Oct-13 09:30N 33°44' W 118°16'0 0.0
2017-Oct-13 09:00N 33°44' W 118°16'0 0.0
2017-Oct-13 08:28N 33°44' W 118°16'0 0.0
2017-Oct-13 08:00N 33°44' W 118°16'0 0.0
2017-Oct-13 07:18N 33°44' W 118°16'0 0.0
2017-Oct-13 07:00N 33°44' W 118°16'0 0.0
2017-Oct-13 06:30N 33°44' W 118°16'0 0.0
2017-Oct-13 05:45N 33°44' W 118°16'0 0.0
2017-Oct-13 05:30N 33°44' W 118°16'0 0.0
2017-Oct-13 04:59N 33°44' W 118°16'0 0.0
2017-Oct-13 04:30N 33°44' W 118°16'0 0.0
2017-Oct-13 03:58N 33°44' W 118°16'0 0.0
2017-Oct-13 03:30N 33°44' W 118°16'0 0.0
2017-Oct-13 03:00N 33°44' W 118°16'0 0.0
2017-Oct-13 02:30N 33°44' W 118°16'0 0.0
2017-Oct-13 02:00N 33°44' W 118°16'0 0.0
2017-Oct-13 01:30N 33°44' W 118°16'0 0.0
2017-Oct-13 00:55N 33°44' W 118°16'0 0.0
2017-Oct-13 00:28N 33°44' W 118°16'0 0.6
2017-Oct-13 00:00N 33°44' W 118°15'0 0.2
2017-Oct-12 22:34N 33°44' W 118°16'0 0.0
2017-Oct-12 22:24N 33°44' W 118°16'0 0.0
2017-Oct-12 21:57N 33°44' W 118°16'0 0.0
2017-Oct-12 21:22N 33°44' W 118°16'0 0.0
2017-Oct-12 20:56N 33°44' W 118°16'0 0.0
2017-Oct-12 20:24N 33°44' W 118°16'0 0.0
2017-Oct-12 19:46N 33°44' W 118°16'0 0.0
2017-Oct-12 19:25N 33°44' W 118°16'0 0.0
2017-Oct-12 18:55N 33°44' W 118°16'0 0.0
2017-Oct-12 18:23N 33°44' W 118°16'0 0.0
2017-Oct-12 17:58N 33°44' W 118°16'0 0.0
2017-Oct-12 17:24N 33°44' W 118°16'0 0.0
2017-Oct-12 17:00N 33°44' W 118°16'0 0.0
2017-Oct-12 16:18N 33°44' W 118°16'0 0.1
2017-Oct-12 15:54N 33°44' W 118°16'0 0.1
2017-Oct-12 15:26N 33°44' W 118°16'0 0.0
2017-Oct-12 13:10N 33°44' W 118°16'1 5.1
2017-Oct-12 13:00N 33°43' W 118°16'1 2.2
2017-Oct-12 12:26N 33°44' W 118°15'0 1.0
2017-Oct-12 12:00N 33°44' W 118°16'0 0.8
2017-Oct-12 11:28N 33°43' W 118°16'1 1.8
2017-Oct-12 10:57N 33°43' W 118°15'1 2.8
2017-Oct-12 10:30N 33°44' W 118°16'0 0.0
2017-Oct-12 09:58N 33°44' W 118°16'0 0.0
2017-Oct-12 09:30N 33°44' W 118°16'0 0.0
2017-Oct-12 09:00N 33°44' W 118°16'0 0.0
2017-Oct-12 08:30N 33°44' W 118°16'0 0.0
2017-Oct-12 08:00N 33°44' W 118°16'0 0.0
2017-Oct-12 07:30N 33°44' W 118°16'0 0.0
2017-Oct-12 07:00N 33°44' W 118°16'0 0.0
2017-Oct-12 06:31N 33°44' W 118°16'0 0.0
2017-Oct-12 06:00N 33°44' W 118°16'0 0.0
2017-Oct-12 05:23N 33°44' W 118°16'0 0.0
2017-Oct-12 05:00N 33°44' W 118°16'0 0.0
2017-Oct-12 03:45N 33°44' W 118°16'0 0.0
2017-Oct-12 03:28N 33°44' W 118°16'0 0.0
2017-Oct-12 02:50N 33°44' W 118°16'0 0.0
2017-Oct-12 02:19N 33°44' W 118°16'0 0.0
2017-Oct-12 01:55N 33°44' W 118°16'0 0.0
2017-Oct-12 01:29N 33°44' W 118°16'0 0.0
2017-Oct-12 01:00N 33°44' W 118°16'0 0.0
2017-Oct-12 00:30N 33°44' W 118°16'0 0.0
2017-Oct-12 00:01N 33°44' W 118°16'0 0.0
2017-Oct-11 23:30N 33°44' W 118°16'0 0.0
2017-Oct-11 23:00N 33°44' W 118°16'0 0.0
2017-Oct-11 22:30N 33°44' W 118°16'0 0.0
2017-Oct-11 22:00N 33°44' W 118°16'0 0.0
2017-Oct-11 21:30N 33°44' W 118°16'0 0.0
2017-Oct-11 20:55N 33°44' W 118°16'0 0.0
2017-Oct-11 20:15N 33°44' W 118°16'0 0.0
2017-Oct-11 20:00N 33°44' W 118°16'0 0.0
2017-Oct-11 19:29N 33°44' W 118°16'0 0.0
2017-Oct-11 18:59N 33°44' W 118°16'0 0.0
2017-Oct-11 18:30N 33°44' W 118°16'0 0.0
2017-Oct-11 18:00N 33°44' W 118°16'0 0.0
2017-Oct-11 17:29N 33°44' W 118°16'0 0.0
2017-Oct-11 16:58N 33°44' W 118°16'0 0.0
2017-Oct-11 00:00N 33°44' W 118°16'0 0.0
2017-Oct-10 23:30N 33°44' W 118°16'0 0.0
2017-Oct-10 23:00N 33°44' W 118°16'0 0.0
2017-Oct-10 22:30N 33°44' W 118°16'0 0.0
2017-Oct-10 22:00N 33°44' W 118°16'0 0.0
2017-Oct-10 21:30N 33°44' W 118°16'0 0.0
2017-Oct-10 21:00N 33°44' W 118°16'0 0.0
2017-Oct-10 20:30N 33°44' W 118°16'0 0.0
2017-Oct-10 20:00N 33°44' W 118°16'0 0.0
2017-Oct-10 19:30N 33°44' W 118°16'0 0.0
2017-Oct-10 19:00N 33°44' W 118°16'0 0.0
2017-Oct-10 18:30N 33°44' W 118°16'0 0.0
2017-Oct-10 18:00N 33°44' W 118°16'0 0.0
2017-Oct-10 17:30N 33°44' W 118°16'0 0.0
2017-Oct-10 17:00N 33°44' W 118°16'0 0.0
2017-Oct-10 16:30N 33°44' W 118°16'0 0.0
2017-Oct-10 16:00N 33°44' W 118°16'0 0.0
2017-Oct-10 15:30N 33°44' W 118°16'0 0.0
2017-Oct-10 15:00N 33°44' W 118°16'0 0.0
2017-Oct-10 14:00N 33°44' W 118°16'0 0.0
2017-Oct-10 13:30N 33°44' W 118°16'0 0.0
2017-Oct-10 13:00N 33°44' W 118°16'0 0.0
2017-Oct-10 12:30N 33°44' W 118°16'0 0.0
2017-Oct-10 12:00N 33°44' W 118°16'0 0.0
2017-Oct-10 11:30N 33°44' W 118°16'0 0.0
2017-Oct-10 11:00N 33°44' W 118°16'0 0.0
2017-Oct-10 10:30N 33°44' W 118°16'0 0.0
2017-Oct-10 09:59N 33°44' W 118°16'0 0.0
2017-Oct-10 09:31N 33°44' W 118°16'0 0.0
2017-Oct-10 09:00N 33°44' W 118°16'0 0.0
2017-Oct-10 08:30N 33°44' W 118°16'0 0.0
2017-Oct-10 08:00N 33°44' W 118°16'0 0.0
2017-Oct-10 07:30N 33°44' W 118°16'0 0.0
2017-Oct-10 07:00N 33°44' W 118°16'0 0.0
2017-Oct-10 06:30N 33°44' W 118°16'0 0.0
2017-Oct-10 05:59N 33°44' W 118°16'0 0.0
2017-Oct-10 05:31N 33°44' W 118°16'0 0.0
2017-Oct-10 05:00N 33°44' W 118°16'0 0.0
2017-Oct-10 04:30N 33°44' W 118°16'0 0.0
2017-Oct-10 04:00N 33°44' W 118°16'0 0.0
2017-Oct-10 03:30N 33°44' W 118°16'0 0.0
2017-Oct-10 03:00N 33°44' W 118°16'0 0.0
2017-Oct-10 02:31N 33°44' W 118°16'0 0.0
2017-Oct-10 02:00N 33°44' W 118°16'0 0.0
2017-Oct-10 01:30N 33°44' W 118°16'0 0.0
2017-Oct-10 01:00N 33°44' W 118°16'0 0.0
2017-Oct-10 00:31N 33°44' W 118°16'0 0.0
2017-Oct-10 00:00N 33°44' W 118°16'0 0.0
2017-Oct-09 23:31N 33°44' W 118°16'0 0.0
2017-Oct-09 23:00N 33°44' W 118°16'0 0.0
2017-Oct-09 22:30N 33°44' W 118°16'0 0.0
2017-Oct-09 22:00N 33°44' W 118°16'0 0.0
2017-Oct-09 21:30N 33°44' W 118°16'0 0.0
2017-Oct-09 21:00N 33°44' W 118°16'0 0.0
2017-Oct-09 20:30N 33°44' W 118°16'0 0.0
2017-Oct-09 20:00N 33°44' W 118°16'0 0.0
2017-Oct-09 19:30N 33°44' W 118°16'0 0.0
2017-Oct-09 18:59N 33°44' W 118°16'0 0.0
2017-Oct-09 18:28N 33°44' W 118°16'0 0.0
2017-Oct-09 18:00N 33°44' W 118°16'0 0.0
2017-Oct-09 17:30N 33°44' W 118°16'0 0.0
2017-Oct-09 16:56N 33°44' W 118°16'0 0.0
2017-Oct-09 16:30N 33°44' W 118°16'0 0.0
2017-Oct-09 15:50N 33°44' W 118°16'0 0.0
2017-Oct-09 04:24N 33°44' W 118°16'0 0.0
2017-Oct-09 03:59N 33°44' W 118°16'0 0.0
2017-Oct-09 03:30N 33°44' W 118°16'0 0.0
2017-Oct-09 02:58N 33°44' W 118°16'0 0.0
2017-Oct-09 02:30N 33°44' W 118°16'0 0.0
2017-Oct-09 02:00N 33°44' W 118°16'  
Track history (hours):
 
Tides and Currents Weather Stations Pressure Air Temp Water Temp Dewpoint Dewpoint Depression Visibility Wind Speed Wind Dir Waves Ship Positions

Millenium Maverick

Last reported at 2017-Oct-19 02:00 UTC. Time now 2017-Oct-19 02:15 UTC.
Position N 33°44' W 118°16'.

Length 29 m; draft 5.5 m.

Type: Towing. MMSI: 366998840.

Date/timePositionNaut miles runAvg speedWind from/ knotsBaromVisibWave heightAir tempDewpointWater temp
2017-Oct-19 02:00N 33°44' W 118°16'0 0.0
2017-Oct-19 01:24N 33°44' W 118°16'0 0.0
2017-Oct-19 01:00N 33°44' W 118°16'1 1.1
2017-Oct-19 00:30N 33°43' W 118°16'3 5.1
2017-Oct-19 00:00N 33°46' W 118°16'2 4.3
2017-Oct-18 23:30N 33°44' W 118°16'1 2.5
2017-Oct-18 23:00N 33°43' W 118°15'3 5.6
2017-Oct-18 22:30N 33°45' W 118°13'1 2.8
2017-Oct-18 22:00N 33°46' W 118°14'2 4.6
2017-Oct-18 21:30N 33°44' W 118°14'2 3.4
2017-Oct-18 21:00N 33°44' W 118°16'0 0.0
2017-Oct-18 20:25N 33°44' W 118°16'0 0.0
2017-Oct-18 19:48N 33°44' W 118°16'0 0.0
2017-Oct-18 19:28N 33°44' W 118°16'0 0.0
2017-Oct-18 18:53N 33°44' W 118°16'0 0.0
2017-Oct-18 18:24N 33°44' W 118°16'0 0.0
2017-Oct-18 17:57N 33°44' W 118°16'0 0.0
2017-Oct-18 17:28N 33°44' W 118°16'0 0.0
2017-Oct-18 17:00N 33°44' W 118°16'0 0.0
2017-Oct-18 16:13N 33°44' W 118°16'0 0.0
2017-Oct-18 15:56N 33°44' W 118°16'0 0.0
2017-Oct-18 15:24N 33°44' W 118°16'1 2.4
2017-Oct-18 14:59N 33°45' W 118°17'1 0.9
2017-Oct-18 13:52N 33°44' W 118°16'0 0.2
2017-Oct-18 13:28N 33°44' W 118°16'1 2.3
2017-Oct-18 13:00N 33°45' W 118°17'1 2.4
2017-Oct-18 12:26N 33°46' W 118°16'1 2.2
2017-Oct-18 12:00N 33°45' W 118°16'1 1.3
2017-Oct-18 11:30N 33°45' W 118°16'2 4.1
2017-Oct-18 11:00N 33°43' W 118°15'1 2.0
2017-Oct-18 10:25N 33°44' W 118°16'0 0.0
2017-Oct-18 10:00N 33°44' W 118°16'0 0.0
2017-Oct-18 09:30N 33°44' W 118°16'0 0.0
2017-Oct-18 09:00N 33°44' W 118°16'0 0.0
2017-Oct-18 08:30N 33°44' W 118°16'0 0.0
2017-Oct-18 08:00N 33°44' W 118°16'0 0.0
2017-Oct-18 07:30N 33°44' W 118°16'0 0.0
2017-Oct-18 07:00N 33°44' W 118°16'0 0.0
2017-Oct-18 06:30N 33°44' W 118°16'0 0.0
2017-Oct-18 06:00N 33°44' W 118°16'0 0.0
2017-Oct-18 05:30N 33°44' W 118°16'0 0.0
2017-Oct-18 05:00N 33°44' W 118°16'0 0.0
2017-Oct-18 04:30N 33°44' W 118°16'0 0.0
2017-Oct-18 04:00N 33°44' W 118°16'0 0.0
2017-Oct-18 03:30N 33°44' W 118°16'0 0.0
2017-Oct-18 01:32N 33°44' W 118°16'0 0.0
2017-Oct-18 01:21N 33°44' W 118°16'0 0.0
2017-Oct-18 00:52N 33°44' W 118°16'0 0.0
2017-Oct-18 00:27N 33°44' W 118°16'0 0.0
2017-Oct-17 23:36N 33°44' W 118°16'0 0.0
2017-Oct-17 23:17N 33°44' W 118°16'0 0.0
2017-Oct-17 22:50N 33°44' W 118°16'0 0.0
2017-Oct-17 21:36N 33°44' W 118°16'0 0.0
2017-Oct-17 21:24N 33°44' W 118°16'0 0.0
2017-Oct-17 20:59N 33°44' W 118°16'0 0.0
2017-Oct-17 20:29N 33°44' W 118°16'0 0.0
2017-Oct-17 19:37N 33°44' W 118°16'0 0.0
2017-Oct-17 19:28N 33°44' W 118°16'0 0.0
2017-Oct-17 19:00N 33°44' W 118°16'0 0.0
2017-Oct-17 18:31N 33°44' W 118°16'0 0.0
2017-Oct-17 18:00N 33°44' W 118°16'0 0.0
2017-Oct-17 17:31N 33°44' W 118°16'0 0.0
2017-Oct-17 16:50N 33°44' W 118°16'0 0.0
2017-Oct-17 16:23N 33°44' W 118°16'0 0.7
2017-Oct-17 15:59N 33°44' W 118°15'0 0.1
2017-Oct-17 15:30N 33°44' W 118°15'1 2.2
2017-Oct-17 15:00N 33°44' W 118°17'3 2.1
2017-Oct-17 13:25N 33°45' W 118°13'1 2.0
2017-Oct-17 12:59N 33°45' W 118°13'2 3.1
2017-Oct-17 12:26N 33°43' W 118°11'1 2.5
2017-Oct-17 11:53N 33°43' W 118°13'2 1.0
2017-Oct-17 09:35N 33°44' W 118°16'0 0.0
2017-Oct-17 08:37N 33°44' W 118°16'0 0.0
2017-Oct-17 08:17N 33°44' W 118°16'0 0.0
2017-Oct-17 06:42N 33°44' W 118°16'0 0.0
2017-Oct-17 06:29N 33°44' W 118°16'0 0.0
2017-Oct-17 05:57N 33°44' W 118°16'0 0.0
2017-Oct-17 05:25N 33°44' W 118°16'0 0.0
2017-Oct-17 04:57N 33°44' W 118°16'0 0.0
2017-Oct-17 04:24N 33°44' W 118°16'0 0.0
2017-Oct-17 03:58N 33°44' W 118°16'0 0.0
2017-Oct-17 03:14N 33°44' W 118°16'0 0.0
2017-Oct-17 03:00N 33°44' W 118°16'1 1.7
2017-Oct-17 02:22N 33°45' W 118°16'1 1.5
2017-Oct-17 02:00N 33°45' W 118°17'0 0.7
2017-Oct-17 01:30N 33°45' W 118°16'1 2.1
2017-Oct-17 00:55N 33°44' W 118°16'0 0.0
2017-Oct-17 00:26N 33°44' W 118°16'0 0.0
2017-Oct-17 00:00N 33°44' W 118°16'0 0.0
2017-Oct-16 23:27N 33°44' W 118°16'0 0.0
2017-Oct-16 23:00N 33°44' W 118°16'0 0.0
2017-Oct-16 22:28N 33°44' W 118°16'0 0.0
2017-Oct-16 22:01N 33°44' W 118°16'0 0.0
2017-Oct-16 21:25N 33°44' W 118°16'0 0.0
2017-Oct-16 21:00N 33°44' W 118°16'0 0.0
2017-Oct-16 20:30N 33°44' W 118°16'0 0.0
2017-Oct-16 19:59N 33°44' W 118°16'0 0.0
2017-Oct-16 19:30N 33°44' W 118°16'0 0.0
2017-Oct-16 19:00N 33°44' W 118°16'0 0.0
2017-Oct-16 18:30N 33°44' W 118°16'0 0.0
2017-Oct-16 18:00N 33°44' W 118°16'0 0.0
2017-Oct-16 17:30N 33°44' W 118°16'0 0.0
2017-Oct-16 16:53N 33°44' W 118°16'0 0.0
2017-Oct-16 16:29N 33°44' W 118°16'0 0.0
2017-Oct-16 16:00N 33°44' W 118°16'2 1.4
2017-Oct-16 14:34N 33°46' W 118°16'0 1.6
2017-Oct-16 14:20N 33°45' W 118°16'2 1.8
2017-Oct-16 13:22N 33°44' W 118°16'0 0.0
2017-Oct-16 10:18N 33°44' W 118°16'0 0.0
2017-Oct-16 09:43N 33°44' W 118°16'0 0.0
2017-Oct-16 09:19N 33°44' W 118°16'0 0.0
2017-Oct-16 08:53N 33°44' W 118°16'0 0.0
2017-Oct-16 08:17N 33°44' W 118°16'0 0.0
2017-Oct-16 07:57N 33°44' W 118°16'0 0.0
2017-Oct-16 07:23N 33°44' W 118°16'0 0.0
2017-Oct-16 06:48N 33°44' W 118°16'0 0.0
2017-Oct-16 06:25N 33°44' W 118°16'0 0.0
2017-Oct-16 05:56N 33°44' W 118°16'0 0.0
2017-Oct-16 05:28N 33°44' W 118°16'0 0.0
2017-Oct-16 04:57N 33°44' W 118°16'0 0.0
2017-Oct-16 04:28N 33°44' W 118°16'0 0.0
2017-Oct-16 04:00N 33°44' W 118°16'0 0.0
2017-Oct-16 03:26N 33°44' W 118°16'0 0.0
2017-Oct-16 02:59N 33°44' W 118°16'0 0.0
2017-Oct-16 02:22N 33°44' W 118°16'0 0.0
2017-Oct-16 01:59N 33°44' W 118°16'0 0.0
2017-Oct-16 01:18N 33°44' W 118°16'0 0.0
2017-Oct-16 00:58N 33°44' W 118°16'0 0.0
2017-Oct-16 00:30N 33°44' W 118°16'0 0.0
2017-Oct-16 00:00N 33°44' W 118°16'0 0.1
2017-Oct-15 23:19N 33°44' W 118°16'2 6.6
2017-Oct-15 23:00N 33°44' W 118°13'1 2.3
2017-Oct-15 22:30N 33°44' W 118°12'1 1.9
2017-Oct-15 21:56N 33°44' W 118°11'2 4.5
2017-Oct-15 21:30N 33°43' W 118°13'2 3.7
2017-Oct-15 20:58N 33°44' W 118°16'0 0.0
2017-Oct-15 20:26N 33°44' W 118°16'0 0.0
2017-Oct-15 20:00N 33°44' W 118°16'0 0.0
2017-Oct-15 19:26N 33°44' W 118°16'0 0.0
2017-Oct-15 19:00N 33°44' W 118°16'0 0.0
2017-Oct-15 18:30N 33°44' W 118°16'0 0.0
2017-Oct-15 18:00N 33°44' W 118°16'0 0.0
2017-Oct-15 17:30N 33°44' W 118°16'0 0.0
2017-Oct-15 17:00N 33°44' W 118°16'1 2.2
2017-Oct-15 16:27N 33°43' W 118°15'2 5.2
2017-Oct-15 15:59N 33°45' W 118°13'1 1.9
2017-Oct-15 15:30N 33°46' W 118°13'0 0.0
2017-Oct-15 15:00N 33°46' W 118°13'2 2.4
2017-Oct-15 14:00N 33°44' W 118°11'4 7.1
2017-Oct-15 13:25N 33°43' W 118°16'0 0.5
2017-Oct-15 13:00N 33°43' W 118°16'0 0.4
2017-Oct-15 12:30N 33°43' W 118°16'1 1.6
2017-Oct-15 12:01N 33°44' W 118°16'0 0.2
2017-Oct-15 11:30N 33°44' W 118°16'0 0.0
2017-Oct-15 11:00N 33°44' W 118°16'0 0.0
2017-Oct-15 10:30N 33°44' W 118°16'0 0.0
2017-Oct-15 10:00N 33°44' W 118°16'0 0.0
2017-Oct-15 09:30N 33°44' W 118°16'0 0.0
2017-Oct-15 09:00N 33°44' W 118°16'0 0.0
2017-Oct-15 08:30N 33°44' W 118°16'0 0.0
2017-Oct-15 08:00N 33°44' W 118°16'0 0.0
2017-Oct-15 07:30N 33°44' W 118°16'0 0.0
2017-Oct-15 07:00N 33°44' W 118°16'0 0.0
2017-Oct-15 06:30N 33°44' W 118°16'0 0.0
2017-Oct-15 06:00N 33°44' W 118°16'0 0.0
2017-Oct-15 05:30N 33°44' W 118°16'0 0.0
2017-Oct-15 05:00N 33°44' W 118°16'0 0.0
2017-Oct-15 04:30N 33°44' W 118°16'0 0.0
2017-Oct-15 04:00N 33°44' W 118°16'0 0.0
2017-Oct-15 03:30N 33°44' W 118°16'0 0.0
2017-Oct-15 03:00N 33°44' W 118°16'0 0.0
2017-Oct-15 02:30N 33°44' W 118°16'2 4.7
2017-Oct-15 02:01N 33°45' W 118°13'1 1.5
2017-Oct-15 01:30N 33°45' W 118°14'0 0.1
2017-Oct-15 01:00N 33°45' W 118°14'1 1.2
2017-Oct-15 00:30N 33°45' W 118°13'3 5.3
2017-Oct-15 00:00N 33°43' W 118°15'1 1.8
2017-Oct-14 23:30N 33°44' W 118°16'0 0.0
2017-Oct-14 23:00N 33°44' W 118°16'0 0.0
2017-Oct-14 22:30N 33°44' W 118°16'0 0.0
2017-Oct-14 22:00N 33°44' W 118°16'0 0.0
2017-Oct-14 21:30N 33°44' W 118°16'0 0.0
2017-Oct-14 21:00N 33°44' W 118°16'0 0.0
2017-Oct-14 20:30N 33°44' W 118°16'0 0.0
2017-Oct-14 20:00N 33°44' W 118°16'0 0.0
2017-Oct-14 19:30N 33°44' W 118°16'0 0.0
2017-Oct-14 19:00N 33°44' W 118°16'0 0.0
2017-Oct-14 18:30N 33°44' W 118°16'0 0.0
2017-Oct-14 17:59N 33°44' W 118°16'0 0.0
2017-Oct-14 17:30N 33°44' W 118°16'0 0.0
2017-Oct-14 16:59N 33°44' W 118°16'0 0.0
2017-Oct-14 16:30N 33°44' W 118°16'0 0.0
2017-Oct-14 16:00N 33°44' W 118°16'0 0.5
2017-Oct-14 15:30N 33°44' W 118°16'4 7.9
2017-Oct-14 14:57N 33°39' W 118°14'4 8.1
2017-Oct-14 14:30N 33°43' W 118°15'2 4.5
2017-Oct-14 14:00N 33°45' W 118°17'2 3.5
2017-Oct-14 13:30N 33°43' W 118°16'1 1.3
2017-Oct-14 13:00N 33°44' W 118°16'0 0.3
2017-Oct-14 12:30N 33°44' W 118°16'2 3.2
2017-Oct-14 12:00N 33°45' W 118°16'1 2.1
2017-Oct-14 11:30N 33°44' W 118°17'2 3.8
2017-Oct-14 10:59N 33°43' W 118°15'1 2.3
2017-Oct-14 10:25N 33°44' W 118°16'0 0.0
2017-Oct-14 09:45N 33°44' W 118°16'0 0.0
2017-Oct-14 09:30N 33°44' W 118°16'0 0.0
2017-Oct-14 08:59N 33°44' W 118°16'0 0.0
2017-Oct-14 08:30N 33°44' W 118°16'0 0.0
2017-Oct-14 08:00N 33°44' W 118°16'0 0.0
2017-Oct-14 07:29N 33°44' W 118°16'0 0.0
2017-Oct-14 06:57N 33°44' W 118°16'0 0.0
2017-Oct-14 06:27N 33°44' W 118°16'0 0.0
2017-Oct-14 06:00N 33°44' W 118°16'0 0.0
2017-Oct-14 05:30N 33°44' W 118°16'0 0.0
2017-Oct-14 05:00N 33°44' W 118°16'0 0.0
2017-Oct-14 04:30N 33°44' W 118°16'0 0.0
2017-Oct-14 04:00N 33°44' W 118°16'0 0.0
2017-Oct-14 03:30N 33°44' W 118°16'0 0.0
2017-Oct-14 03:00N 33°44' W 118°16'0 0.0
2017-Oct-14 02:30N 33°44' W 118°16'0 0.0
2017-Oct-14 02:00N 33°44' W 118°16'0 0.6
2017-Oct-14 01:30N 33°44' W 118°15'0 0.6
2017-Oct-14 01:01N 33°44' W 118°16'0 0.0
2017-Oct-14 00:30N 33°44' W 118°16'0 0.0
2017-Oct-14 00:00N 33°44' W 118°16'0 0.0
2017-Oct-13 23:30N 33°44' W 118°16'0 0.0
2017-Oct-13 23:00N 33°44' W 118°16'0 0.0
2017-Oct-13 22:06N 33°44' W 118°16'0 0.0
2017-Oct-13 21:37N 33°44' W 118°16'0 0.0
2017-Oct-13 21:30N 33°44' W 118°16'0 0.0
2017-Oct-13 20:55N 33°44' W 118°16'0 0.0
2017-Oct-13 20:21N 33°44' W 118°16'0 0.0
2017-Oct-13 19:55N 33°44' W 118°16'0 0.0
2017-Oct-13 19:13N 33°44' W 118°16'0 0.0
2017-Oct-13 19:00N 33°44' W 118°16'0 0.0
2017-Oct-13 18:30N 33°44' W 118°16'0 0.0
2017-Oct-13 17:58N 33°44' W 118°16'0 0.0
2017-Oct-13 17:28N 33°44' W 118°16'0 0.0
2017-Oct-13 17:00N 33°44' W 118°16'0 0.0
2017-Oct-13 16:23N 33°44' W 118°16'0 0.0
2017-Oct-13 15:31N 33°44' W 118°16'0 0.4
2017-Oct-13 15:30N 33°44' W 118°16'0 0.0
2017-Oct-13 14:54N 33°44' W 118°16'0 0.0
2017-Oct-13 14:28N 33°44' W 118°16'0 0.0
2017-Oct-13 13:58N 33°44' W 118°16'0 0.0
2017-Oct-13 13:30N 33°44' W 118°16'0 0.0
2017-Oct-13 13:00N 33°44' W 118°16'0 0.0
2017-Oct-13 12:02N 33°44' W 118°16'0 0.0
2017-Oct-13 11:43N 33°44' W 118°16'0 0.0
2017-Oct-13 11:30N 33°44' W 118°16'0 0.0
2017-Oct-13 11:00N 33°44' W 118°16'0 0.0
2017-Oct-13 10:30N 33°44' W 118°16'0 0.0
2017-Oct-13 10:00N 33°44' W 118°16'0 0.0
2017-Oct-13 09:30N 33°44' W 118°16'0 0.0
2017-Oct-13 09:00N 33°44' W 118°16'0 0.0
2017-Oct-13 08:28N 33°44' W 118°16'0 0.0
2017-Oct-13 08:00N 33°44' W 118°16'0 0.0
2017-Oct-13 07:18N 33°44' W 118°16'0 0.0
2017-Oct-13 07:00N 33°44' W 118°16'0 0.0
2017-Oct-13 06:30N 33°44' W 118°16'0 0.0
2017-Oct-13 05:45N 33°44' W 118°16'0 0.0
2017-Oct-13 05:30N 33°44' W 118°16'0 0.0
2017-Oct-13 04:59N 33°44' W 118°16'0 0.0
2017-Oct-13 04:30N 33°44' W 118°16'0 0.0
2017-Oct-13 03:58N 33°44' W 118°16'0 0.0
2017-Oct-13 03:30N 33°44' W 118°16'0 0.0
2017-Oct-13 03:00N 33°44' W 118°16'0 0.0
2017-Oct-13 02:30N 33°44' W 118°16'0 0.0
2017-Oct-13 02:00N 33°44' W 118°16'0 0.0
2017-Oct-13 01:30N 33°44' W 118°16'0 0.0
2017-Oct-13 00:55N 33°44' W 118°16'0 0.0
2017-Oct-13 00:28N 33°44' W 118°16'0 0.6
2017-Oct-13 00:00N 33°44' W 118°15'0 0.2
2017-Oct-12 22:34N 33°44' W 118°16'0 0.0
2017-Oct-12 22:24N 33°44' W 118°16'0 0.0
2017-Oct-12 21:57N 33°44' W 118°16'0 0.0
2017-Oct-12 21:22N 33°44' W 118°16'0 0.0
2017-Oct-12 20:56N 33°44' W 118°16'0 0.0
2017-Oct-12 20:24N 33°44' W 118°16'0 0.0
2017-Oct-12 19:46N 33°44' W 118°16'0 0.0
2017-Oct-12 19:25N 33°44' W 118°16'0 0.0
2017-Oct-12 18:55N 33°44' W 118°16'0 0.0
2017-Oct-12 18:23N 33°44' W 118°16'0 0.0
2017-Oct-12 17:58N 33°44' W 118°16'0 0.0
2017-Oct-12 17:24N 33°44' W 118°16'0 0.0
2017-Oct-12 17:00N 33°44' W 118°16'0 0.0
2017-Oct-12 16:18N 33°44' W 118°16'0 0.1
2017-Oct-12 15:54N 33°44' W 118°16'0 0.1
2017-Oct-12 15:26N 33°44' W 118°16'0 0.0
2017-Oct-12 13:10N 33°44' W 118°16'1 5.1
2017-Oct-12 13:00N 33°43' W 118°16'1 2.2
2017-Oct-12 12:26N 33°44' W 118°15'0 1.0
2017-Oct-12 12:00N 33°44' W 118°16'0 0.8
2017-Oct-12 11:28N 33°43' W 118°16'1 1.8
2017-Oct-12 10:57N 33°43' W 118°15'1 2.8
2017-Oct-12 10:30N 33°44' W 118°16'0 0.0
2017-Oct-12 09:58N 33°44' W 118°16'0 0.0
2017-Oct-12 09:30N 33°44' W 118°16'0 0.0
2017-Oct-12 09:00N 33°44' W 118°16'0 0.0
2017-Oct-12 08:30N 33°44' W 118°16'0 0.0
2017-Oct-12 08:00N 33°44' W 118°16'0 0.0
2017-Oct-12 07:30N 33°44' W 118°16'0 0.0
2017-Oct-12 07:00N 33°44' W 118°16'0 0.0
2017-Oct-12 06:31N 33°44' W 118°16'0 0.0
2017-Oct-12 06:00N 33°44' W 118°16'0 0.0
2017-Oct-12 05:23N 33°44' W 118°16'0 0.0
2017-Oct-12 05:00N 33°44' W 118°16'0 0.0
2017-Oct-12 03:45N 33°44' W 118°16'0 0.0
2017-Oct-12 03:28N 33°44' W 118°16'0 0.0
2017-Oct-12 02:50N 33°44' W 118°16'0 0.0
2017-Oct-12 02:19N 33°44' W 118°16'0 0.0
2017-Oct-12 01:55N 33°44' W 118°16'0 0.0
2017-Oct-12 01:29N 33°44' W 118°16'0 0.0
2017-Oct-12 01:00N 33°44' W 118°16'0 0.0
2017-Oct-12 00:30N 33°44' W 118°16'0 0.0
2017-Oct-12 00:01N 33°44' W 118°16'0 0.0
2017-Oct-11 23:30N 33°44' W 118°16'0 0.0
2017-Oct-11 23:00N 33°44' W 118°16'0 0.0
2017-Oct-11 22:30N 33°44' W 118°16'0 0.0
2017-Oct-11 22:00N 33°44' W 118°16'0 0.0
2017-Oct-11 21:30N 33°44' W 118°16'0 0.0
2017-Oct-11 20:55N 33°44' W 118°16'0 0.0
2017-Oct-11 20:15N 33°44' W 118°16'0 0.0
2017-Oct-11 20:00N 33°44' W 118°16'0 0.0
2017-Oct-11 19:29N 33°44' W 118°16'0 0.0
2017-Oct-11 18:59N 33°44' W 118°16'0 0.0
2017-Oct-11 18:30N 33°44' W 118°16'0 0.0
2017-Oct-11 18:00N 33°44' W 118°16'0 0.0
2017-Oct-11 17:29N 33°44' W 118°16'0 0.0
2017-Oct-11 16:58N 33°44' W 118°16'0 0.0
2017-Oct-11 00:00N 33°44' W 118°16'0 0.0
2017-Oct-10 23:30N 33°44' W 118°16'0 0.0
2017-Oct-10 23:00N 33°44' W 118°16'0 0.0
2017-Oct-10 22:30N 33°44' W 118°16'0 0.0
2017-Oct-10 22:00N 33°44' W 118°16'0 0.0
2017-Oct-10 21:30N 33°44' W 118°16'0 0.0
2017-Oct-10 21:00N 33°44' W 118°16'0 0.0
2017-Oct-10 20:30N 33°44' W 118°16'0 0.0
2017-Oct-10 20:00N 33°44' W 118°16'0 0.0
2017-Oct-10 19:30N 33°44' W 118°16'0 0.0
2017-Oct-10 19:00N 33°44' W 118°16'0 0.0
2017-Oct-10 18:30N 33°44' W 118°16'0 0.0
2017-Oct-10 18:00N 33°44' W 118°16'0 0.0
2017-Oct-10 17:30N 33°44' W 118°16'0 0.0
2017-Oct-10 17:00N 33°44' W 118°16'0 0.0
2017-Oct-10 16:30N 33°44' W 118°16'0 0.0
2017-Oct-10 16:00N 33°44' W 118°16'0 0.0
2017-Oct-10 15:30N 33°44' W 118°16'0 0.0
2017-Oct-10 15:00N 33°44' W 118°16'0 0.0
2017-Oct-10 14:00N 33°44' W 118°16'0 0.0
2017-Oct-10 13:30N 33°44' W 118°16'0 0.0
2017-Oct-10 13:00N 33°44' W 118°16'0 0.0
2017-Oct-10 12:30N 33°44' W 118°16'0 0.0
2017-Oct-10 12:00N 33°44' W 118°16'0 0.0
2017-Oct-10 11:30N 33°44' W 118°16'0 0.0
2017-Oct-10 11:00N 33°44' W 118°16'0 0.0
2017-Oct-10 10:30N 33°44' W 118°16'0 0.0
2017-Oct-10 09:59N 33°44' W 118°16'0 0.0
2017-Oct-10 09:31N 33°44' W 118°16'0 0.0
2017-Oct-10 09:00N 33°44' W 118°16'0 0.0
2017-Oct-10 08:30N 33°44' W 118°16'0 0.0
2017-Oct-10 08:00N 33°44' W 118°16'0 0.0
2017-Oct-10 07:30N 33°44' W 118°16'0 0.0
2017-Oct-10 07:00N 33°44' W 118°16'0 0.0
2017-Oct-10 06:30N 33°44' W 118°16'0 0.0
2017-Oct-10 05:59N 33°44' W 118°16'0 0.0
2017-Oct-10 05:31N 33°44' W 118°16'0 0.0
2017-Oct-10 05:00N 33°44' W 118°16'0 0.0
2017-Oct-10 04:30N 33°44' W 118°16'0 0.0
2017-Oct-10 04:00N 33°44' W 118°16'0 0.0
2017-Oct-10 03:30N 33°44' W 118°16'0 0.0
2017-Oct-10 03:00N 33°44' W 118°16'0 0.0
2017-Oct-10 02:31N 33°44' W 118°16'0 0.0
2017-Oct-10 02:00N 33°44' W 118°16'0 0.0
2017-Oct-10 01:30N 33°44' W 118°16'0 0.0
2017-Oct-10 01:00N 33°44' W 118°16'0 0.0
2017-Oct-10 00:31N 33°44' W 118°16'0 0.0
2017-Oct-10 00:00N 33°44' W 118°16'0 0.0
2017-Oct-09 23:31N 33°44' W 118°16'0 0.0
2017-Oct-09 23:00N 33°44' W 118°16'0 0.0
2017-Oct-09 22:30N 33°44' W 118°16'0 0.0
2017-Oct-09 22:00N 33°44' W 118°16'0 0.0
2017-Oct-09 21:30N 33°44' W 118°16'0 0.0
2017-Oct-09 21:00N 33°44' W 118°16'0 0.0
2017-Oct-09 20:30N 33°44' W 118°16'0 0.0
2017-Oct-09 20:00N 33°44' W 118°16'0 0.0
2017-Oct-09 19:30N 33°44' W 118°16'0 0.0
2017-Oct-09 18:59N 33°44' W 118°16'0 0.0
2017-Oct-09 18:28N 33°44' W 118°16'0 0.0
2017-Oct-09 18:00N 33°44' W 118°16'0 0.0
2017-Oct-09 17:30N 33°44' W 118°16'0 0.0
2017-Oct-09 16:56N 33°44' W 118°16'0 0.0
2017-Oct-09 16:30N 33°44' W 118°16'0 0.0
2017-Oct-09 15:50N 33°44' W 118°16'0 0.0
2017-Oct-09 04:24N 33°44' W 118°16'0 0.0
2017-Oct-09 03:59N 33°44' W 118°16'0 0.0
2017-Oct-09 03:30N 33°44' W 118°16'0 0.0
2017-Oct-09 02:58N 33°44' W 118°16'0 0.0
2017-Oct-09 02:30N 33°44' W 118°16'0 0.0
2017-Oct-09 02:00N 33°44' W 118°16'  

Dump ship's entire track history